Time;durP1;ratioP1;P1;durP2;ratioP2;P2;SDS_P1;SDS_P2;PMS_P1;PMS_P2;Temp;Humidity;BMP_temperature;BMP_pressure;BME280_temperature;BME280_humidity;BME280_pressure;Samples;Min_cycle;Max_cycle;Signal;HPM_P1;HPM_P2
2021/12/06 00:02:00;;;;;;;12.60;7.07;;;5.60;64.80;;;;;;5036922;28;20649;-74
2021/12/06 00:04:31;;;;;;;7.90;5.68;;;5.50;66.20;;;;;;5028347;28;20466;-74
2021/12/06 00:07:01;;;;;;;8.10;5.05;;;5.40;67.00;;;;;;5016309;28;20401;-73
2021/12/06 00:09:28;;;;;;;7.40;5.10;;;5.40;68.10;;;;;;5030790;28;20395;-73
2021/12/06 00:11:59;;;;;;;10.40;5.30;;;5.40;68.30;;;;;;5021478;28;20447;-73
2021/12/06 00:14:29;;;;;;;9.55;5.90;;;5.50;67.20;;;;;;5029047;28;20540;-75
2021/12/06 00:16:56;;;;;;;10.93;6.00;;;5.50;67.20;;;;;;5037757;28;20405;-73
2021/12/06 00:19:21;;;;;;;7.00;5.37;;;5.40;67.50;;;;;;5050495;28;20408;-75
2021/12/06 00:21:47;;;;;;;13.18;7.55;;;5.40;68.10;;;;;;5019966;28;20412;-75
2021/12/06 00:24:12;;;;;;;10.15;7.13;;;5.40;67.50;;;;;;5040225;28;20410;-74
2021/12/06 00:26:38;;;;;;;8.02;6.00;;;5.40;68.50;;;;;;5050608;28;20385;-75
2021/12/06 00:29:04;;;;;;;11.52;6.03;;;5.30;69.20;;;;;;5020730;28;20407;-75
2021/12/06 00:31:33;;;;;;;7.50;5.32;;;5.30;70.80;;;;;;5037872;28;20395;-74
2021/12/06 00:34:03;;;;;;;9.55;6.13;;;5.30;72.40;;;;;;5013766;28;20489;-73
2021/12/06 00:36:31;;;;;;;9.27;5.60;;;5.40;72.80;;;;;;5023463;28;20400;-74
2021/12/06 00:38:57;;;;;;;8.18;6.15;;;5.40;71.90;;;;;;5014745;28;20393;-73
2021/12/06 00:41:23;;;;;;;8.45;5.80;;;5.40;71.20;;;;;;5039111;28;20717;-75
2021/12/06 00:43:49;;;;;;;9.50;5.82;;;5.40;71.50;;;;;;5041642;28;20402;-76
2021/12/06 00:46:15;;;;;;;9.05;5.88;;;5.40;72.00;;;;;;5055526;28;20385;-75
2021/12/06 00:48:40;;;;;;;15.02;8.13;;;5.40;71.50;;;;;;5043557;28;20820;-75
2021/12/06 00:51:06;;;;;;;9.37;6.10;;;5.40;71.80;;;;;;5037551;28;20395;-75
2021/12/06 00:53:32;;;;;;;8.83;6.20;;;5.40;72.00;;;;;;5020936;28;20403;-75
2021/12/06 00:55:58;;;;;;;9.52;5.80;;;5.30;72.30;;;;;;5026874;28;20411;-76
2021/12/06 00:58:26;;;;;;;10.40;5.60;;;5.40;71.30;;;;;;5056535;28;20497;-76
2021/12/06 01:00:54;;;;;;;9.02;6.05;;;5.40;70.50;;;;;;5058282;28;20446;-75
2021/12/06 01:03:29;;;;;;;13.27;6.75;;;5.30;71.00;;;;;;5046260;28;20387;-76
2021/12/06 01:05:54;;;;;;;10.10;6.00;;;5.20;72.80;;;;;;5032543;28;20490;-77
2021/12/06 01:08:21;;;;;;;10.90;5.93;;;5.20;74.10;;;;;;5034996;28;20482;-74
2021/12/06 01:10:47;;;;;;;11.27;6.63;;;5.20;75.30;;;;;;5047804;28;20394;-74
2021/12/06 01:13:13;;;;;;;9.32;5.90;;;5.10;76.10;;;;;;5035720;28;20484;-75
2021/12/06 01:15:39;;;;;;;10.83;6.17;;;5.20;77.80;;;;;;5022900;28;20425;-74
2021/12/06 01:18:09;;;;;;;11.15;6.13;;;5.40;75.40;;;;;;5015358;28;20393;-75
2021/12/06 01:20:42;;;;;;;7.38;5.90;;;5.40;71.80;;;;;;5013494;28;20446;-74
2021/12/06 01:23:12;;;;;;;13.05;7.70;;;5.30;73.20;;;;;;5029226;28;20443;-75
2021/12/06 01:41:35;;;;;;;11.10;7.55;;;4.90;81.20;;;;;;5033648;28;20386;-77
2021/12/06 01:44:13;;;;;;;8.73;6.07;;;4.80;81.70;;;;;;5033614;28;20395;-76
2021/12/06 01:47:02;;;;;;;9.05;6.45;;;4.80;82.70;;;;;;5040016;28;20734;-76
2021/12/06 01:49:34;;;;;;;8.82;6.22;;;4.80;83.40;;;;;;5014170;28;20898;-75
2021/12/06 01:52:04;;;;;;;11.85;7.20;;;4.90;83.10;;;;;;5014076;28;20483;-75
2021/12/06 01:54:31;;;;;;;10.43;6.90;;;4.90;81.10;;;;;;5020288;28;20757;-76
2021/12/06 01:56:57;;;;;;;9.30;7.10;;;4.90;81.40;;;;;;5044252;28;20486;-74
2021/12/06 01:59:24;;;;;;;13.70;8.88;;;4.80;82.50;;;;;;5022367;28;20389;-73
2021/12/06 02:01:51;;;;;;;16.40;9.10;;;4.80;83.40;;;;;;5021935;28;20825;-74
2021/12/06 02:04:17;;;;;;;11.35;6.57;;;4.70;84.70;;;;;;5034740;28;20503;-74
2021/12/06 02:06:43;;;;;;;9.97;6.77;;;4.70;83.80;;;;;;5060030;28;20470;-74
2021/12/06 02:09:14;;;;;;;11.18;7.47;;;4.60;83.30;;;;;;5046134;28;20387;-74
2021/12/06 02:11:40;;;;;;;11.80;7.10;;;4.50;82.80;;;;;;5032130;28;20387;-76
2021/12/06 02:17:01;;;;;;;8.30;7.27;;;4.30;87.30;;;;;;5042590;28;20880;-76
2021/12/06 02:19:32;;;;;;;9.47;6.80;;;4.60;86.80;;;;;;5033552;28;20434;-76
2021/12/06 02:22:00;;;;;;;10.95;7.80;;;4.70;86.80;;;;;;5034453;28;20387;-75
2021/12/06 02:24:26;;;;;;;9.52;7.00;;;4.70;83.20;;;;;;5048249;28;20405;-76
2021/12/06 02:26:53;;;;;;;12.68;7.50;;;4.70;84.20;;;;;;5045045;28;20381;-75
2021/12/06 02:29:20;;;;;;;11.15;7.85;;;4.70;83.90;;;;;;5045569;28;20383;-75
2021/12/06 02:31:45;;;;;;;12.02;7.40;;;4.90;81.40;;;;;;5033164;28;20752;-75
2021/12/06 02:34:12;;;;;;;11.45;6.80;;;5.00;77.00;;;;;;5034460;28;20399;-75
2021/12/06 02:36:38;;;;;;;13.65;6.72;;;5.10;74.20;;;;;;5044480;28;20444;-76
2021/12/06 02:39:08;;;;;;;11.77;7.27;;;5.10;73.50;;;;;;5046508;28;20402;-74
2021/12/06 02:41:34;;;;;;;11.80;7.00;;;5.10;74.10;;;;;;5032695;28;20382;-74
2021/12/06 02:44:00;;;;;;;10.23;7.27;;;5.20;73.20;;;;;;5032307;28;20734;-74
2021/12/06 02:46:25;;;;;;;9.95;6.60;;;5.20;73.40;;;;;;5039893;28;20413;-75
2021/12/06 02:48:51;;;;;;;12.70;7.67;;;5.20;73.30;;;;;;5038087;28;20901;-74
2021/12/06 02:51:18;;;;;;;10.27;7.10;;;5.20;73.50;;;;;;5034186;28;20872;-75
2021/12/06 02:53:45;;;;;;;11.90;7.40;;;5.20;73.10;;;;;;5015079;28;20773;-75
2021/12/06 02:56:30;;;;;;;12.23;7.57;;;5.00;73.70;;;;;;5050505;28;20494;-75
2021/12/06 02:58:59;;;;;;;16.08;7.50;;;4.90;79.10;;;;;;5064229;28;20743;-74
2021/12/06 03:01:33;;;;;;;9.40;7.17;;;5.10;77.90;;;;;;5055418;28;20385;-75
2021/12/06 03:04:00;;;;;;;9.30;7.72;;;5.20;74.80;;;;;;5040154;28;20383;-76
2021/12/06 03:06:27;;;;;;;12.85;7.68;;;5.10;75.10;;;;;;5051794;28;20397;-74
2021/12/06 03:09:04;;;;;;;12.50;7.90;;;5.20;73.40;;;;;;5016481;28;20949;-76
2021/12/06 03:11:53;;;;;;;12.88;7.88;;;5.30;71.80;;;;;;5012031;28;20405;-74
2021/12/06 03:14:26;;;;;;;9.68;7.80;;;5.20;71.70;;;;;;5019581;28;20484;-75
2021/12/06 03:16:54;;;;;;;13.10;8.18;;;5.10;71.80;;;;;;5035678;28;20445;-76
2021/12/06 03:19:21;;;;;;;13.27;8.20;;;4.80;73.10;;;;;;5033331;28;20973;-76
2021/12/06 03:21:46;;;;;;;14.60;9.35;;;4.40;78.20;;;;;;5032717;28;20489;-72
2021/12/06 03:24:12;;;;;;;13.10;8.90;;;4.20;82.50;;;;;;5045569;28;20412;-72
2021/12/06 03:26:40;;;;;;;12.02;8.90;;;4.00;86.10;;;;;;5041506;28;20391;-71
2021/12/06 03:29:05;;;;;;;16.02;9.13;;;3.80;88.60;;;;;;5040500;28;20404;-72
2021/12/06 03:31:31;;;;;;;14.17;8.97;;;3.60;91.50;;;;;;5057406;28;20417;-72
2021/12/06 03:33:58;;;;;;;14.30;9.20;;;3.50;93.50;;;;;;5058191;28;20385;-71
2021/12/06 03:36:27;;;;;;;12.05;8.82;;;3.40;95.00;;;;;;5055779;28;20385;-73
2021/12/06 03:38:54;;;;;;;15.90;8.90;;;3.40;99.90;;;;;;5047387;28;20386;-72
2021/12/06 03:41:22;;;;;;;15.80;8.40;;;3.70;99.90;;;;;;5054419;28;20392;-71
2021/12/06 03:43:48;;;;;;;12.32;8.18;;;3.90;97.30;;;;;;5058662;28;20390;-72
2021/12/06 03:46:17;;;;;;;14.90;8.90;;;3.90;93.60;;;;;;5054644;28;20409;-71
2021/12/06 03:48:43;;;;;;;14.35;8.40;;;4.10;90.50;;;;;;5041508;28;20496;-72
2021/12/06 03:51:08;;;;;;;15.07;8.37;;;4.10;86.80;;;;;;5051666;28;20886;-72
2021/12/06 03:53:34;;;;;;;12.35;7.88;;;4.10;83.80;;;;;;5032067;28;20414;-71
2021/12/06 03:56:00;;;;;;;14.20;8.97;;;3.90;82.60;;;;;;5040893;28;20405;-72
2021/12/06 03:58:27;;;;;;;15.93;9.57;;;3.50;86.20;;;;;;5044335;28;20385;-71
2021/12/06 04:00:54;;;;;;;10.05;8.40;;;3.20;90.80;;;;;;5028740;28;20434;-72
2021/12/06 04:03:22;;;;;;;15.15;10.20;;;3.00;94.20;;;;;;5039288;28;20973;-71
2021/12/06 04:05:48;;;;;;;15.65;9.20;;;2.80;97.00;;;;;;5048391;28;20428;-72
2021/12/06 04:08:14;;;;;;;17.48;9.20;;;2.70;99.10;;;;;;5050826;28;20837;-72
2021/12/06 04:10:39;;;;;;;18.00;10.50;;;2.60;99.90;;;;;;5038180;28;20406;-71
2021/12/06 04:13:06;;;;;;;16.50;9.98;;;2.50;99.90;;;;;;5040553;28;20383;-72
2021/12/06 04:15:33;;;;;;;13.73;9.48;;;2.50;99.90;;;;;;5031428;28;20417;-71
2021/12/06 04:17:59;;;;;;;14.63;9.57;;;2.60;99.90;;;;;;5034252;28;20398;-74
2021/12/06 04:20:25;;;;;;;16.73;10.50;;;3.00;99.90;;;;;;5038625;28;20405;-72
2021/12/06 04:22:51;;;;;;;11.83;8.80;;;2.90;99.90;;;;;;5044269;28;20397;-72
2021/12/06 04:25:18;;;;;;;14.32;8.60;;;2.70;99.90;;;;;;5055150;28;20401;-70
2021/12/06 04:27:52;;;;;;;14.75;9.88;;;2.60;99.90;;;;;;5055626;28;20940;-71
2021/12/06 04:30:18;;;;;;;18.97;10.43;;;2.60;99.90;;;;;;5048111;28;20503;-72
2021/12/06 04:32:44;;;;;;;16.05;9.50;;;2.50;99.90;;;;;;5033435;28;20404;-70
2021/12/06 04:35:10;;;;;;;15.50;9.53;;;2.40;99.90;;;;;;5043281;28;20642;-71
2021/12/06 04:37:36;;;;;;;15.18;9.90;;;2.30;99.90;;;;;;5055905;28;20468;-71
2021/12/06 04:40:04;;;;;;;13.17;10.13;;;2.20;99.90;;;;;;5042541;28;21046;-72
2021/12/06 04:42:30;;;;;;;15.73;10.70;;;2.10;99.90;;;;;;5048565;28;20385;-72
2021/12/06 04:44:56;;;;;;;21.57;12.20;;;2.10;99.90;;;;;;5049951;28;20416;-71
2021/12/06 04:47:21;;;;;;;17.83;11.10;;;2.10;99.90;;;;;;5018043;28;20450;-72
2021/12/06 04:49:47;;;;;;;15.77;11.10;;;2.10;99.90;;;;;;5034841;28;20387;-75
2021/12/06 04:52:15;;;;;;;16.30;10.50;;;2.20;99.90;;;;;;5032925;28;20431;-75
2021/12/06 04:54:44;;;;;;;16.65;10.60;;;2.10;99.90;;;;;;5045388;28;20395;-75
2021/12/06 04:57:22;;;;;;;17.20;10.85;;;2.30;99.90;;;;;;5055798;28;20397;-74
2021/12/06 04:59:54;;;;;;;15.93;10.40;;;2.40;99.90;;;;;;5062344;28;20400;-74
2021/12/06 05:02:27;;;;;;;18.08;10.95;;;2.30;99.90;;;;;;5055418;28;20381;-74
2021/12/06 05:04:56;;;;;;;17.02;10.82;;;2.30;99.90;;;;;;5023642;28;20412;-74
2021/12/06 05:07:36;;;;;;;16.17;10.32;;;2.30;99.90;;;;;;5045930;28;20386;-74
2021/12/06 05:10:04;;;;;;;16.90;10.17;;;2.20;99.90;;;;;;5045091;28;20392;-74
2021/12/06 05:12:30;;;;;;;18.73;11.70;;;2.20;99.90;;;;;;5065838;28;20393;-75
2021/12/06 05:14:56;;;;;;;16.52;11.45;;;2.20;99.90;;;;;;5058071;28;20413;-74
2021/12/06 05:17:22;;;;;;;18.25;10.75;;;2.10;99.90;;;;;;5015316;28;20936;-76
2021/12/06 05:19:48;;;;;;;20.60;11.50;;;2.00;99.90;;;;;;5014221;28;20393;-76
2021/12/06 05:22:14;;;;;;;17.58;12.43;;;1.90;99.90;;;;;;5044240;28;20441;-75
2021/12/06 05:24:40;;;;;;;21.15;12.10;;;1.80;99.90;;;;;;5033684;28;20406;-75
2021/12/06 05:27:06;;;;;;;16.73;10.40;;;1.80;99.90;;;;;;5034345;28;20394;-74
2021/12/06 05:29:33;;;;;;;16.23;11.60;;;1.80;99.90;;;;;;5045794;28;20889;-74
2021/12/06 05:32:00;;;;;;;15.80;10.70;;;1.80;99.90;;;;;;5032729;28;20525;-74
2021/12/06 05:34:39;;;;;;;17.40;11.23;;;1.80;99.90;;;;;;5033899;28;20395;-75
2021/12/06 05:37:08;;;;;;;16.98;11.20;;;1.80;99.90;;;;;;5016530;28;20401;-74
2021/12/06 05:39:33;;;;;;;16.40;11.10;;;1.80;99.90;;;;;;5034338;28;20863;-74
2021/12/06 05:42:02;;;;;;;20.77;12.13;;;1.80;99.90;;;;;;5034271;28;20433;-74
2021/12/06 05:44:28;;;;;;;16.52;11.15;;;1.70;99.90;;;;;;5032829;28;20414;-74
2021/12/06 05:46:54;;;;;;;19.33;11.80;;;1.60;99.90;;;;;;5031643;28;20427;-74
2021/12/06 05:49:20;;;;;;;17.98;11.95;;;1.60;99.90;;;;;;5043932;28;20423;-75
2021/12/06 05:51:46;;;;;;;20.55;11.43;;;1.60;99.90;;;;;;5019051;28;20410;-74
2021/12/06 05:54:12;;;;;;;24.00;12.10;;;1.60;99.90;;;;;;5026313;28;20932;-75
2021/12/06 05:56:37;;;;;;;20.67;11.43;;;1.60;99.90;;;;;;5040049;28;20418;-75
2021/12/06 05:59:03;;;;;;;20.63;11.68;;;1.50;99.90;;;;;;5024799;28;20407;-75
2021/12/06 06:01:30;;;;;;;18.10;11.57;;;1.50;99.90;;;;;;5030582;28;20399;-74
2021/12/06 06:04:01;;;;;;;16.30;10.52;;;1.40;99.90;;;;;;5028539;28;20433;-74
2021/12/06 06:06:31;;;;;;;13.63;10.25;;;1.60;99.90;;;;;;5035064;28;20394;-74
2021/12/06 06:08:57;;;;;;;22.30;10.63;;;1.50;99.90;;;;;;5027552;28;20539;-74
2021/12/06 06:11:23;;;;;;;15.68;10.70;;;1.50;99.90;;;;;;5022255;28;20385;-74
2021/12/06 06:13:49;;;;;;;17.03;9.97;;;1.40;99.90;;;;;;5022725;28;20443;-75
2021/12/06 06:16:20;;;;;;;20.98;11.32;;;1.50;99.90;;;;;;5051980;28;20390;-74
2021/12/06 06:18:49;;;;;;;19.17;11.55;;;1.50;99.90;;;;;;5056265;28;20529;-74
2021/12/06 06:21:15;;;;;;;17.42;12.13;;;1.60;99.90;;;;;;5043038;28;21031;-74
2021/12/06 06:23:42;;;;;;;20.90;12.95;;;1.70;99.90;;;;;;5034984;28;20820;-74
2021/12/06 06:26:08;;;;;;;22.35;13.02;;;1.90;99.90;;;;;;5052423;28;20480;-75
2021/12/06 06:28:33;;;;;;;22.20;13.38;;;2.10;99.90;;;;;;5048670;28;20396;-75
2021/12/06 06:31:00;;;;;;;19.40;12.80;;;2.30;99.90;;;;;;5019867;28;20388;-75
2021/12/06 06:33:26;;;;;;;22.03;12.57;;;2.40;99.90;;;;;;5023773;28;20399;-75
2021/12/06 06:35:52;;;;;;;17.42;12.27;;;2.40;99.90;;;;;;5041061;28;20449;-75
2021/12/06 06:38:18;;;;;;;19.27;12.60;;;2.50;99.90;;;;;;5049028;28;21136;-75
2021/12/06 06:40:44;;;;;;;17.38;11.43;;;2.60;99.90;;;;;;5038838;28;20884;-74
2021/12/06 06:43:10;;;;;;;17.40;11.75;;;2.70;99.90;;;;;;5032012;28;20428;-74
2021/12/06 06:45:36;;;;;;;21.30;12.20;;;2.80;99.90;;;;;;5035663;28;20416;-73
2021/12/06 06:48:02;;;;;;;20.48;12.30;;;2.80;99.90;;;;;;5054824;28;20410;-74
2021/12/06 06:50:28;;;;;;;17.50;11.68;;;2.90;99.90;;;;;;5034746;28;20386;-74
2021/12/06 06:52:54;;;;;;;19.67;12.07;;;2.90;99.90;;;;;;5020959;28;20403;-74
2021/12/06 06:55:21;;;;;;;20.33;12.13;;;2.80;99.90;;;;;;5045105;28;20393;-74
2021/12/06 06:57:47;;;;;;;18.13;12.30;;;2.80;99.90;;;;;;5050376;28;20476;-75
2021/12/06 07:00:22;;;;;;;19.40;12.20;;;2.70;99.90;;;;;;5032357;28;20391;-73
2021/12/06 07:02:48;;;;;;;18.38;12.30;;;2.60;99.90;;;;;;5029552;28;20413;-74
2021/12/06 07:05:15;;;;;;;23.58;12.60;;;2.50;99.90;;;;;;5042450;28;20859;-74
2021/12/06 07:07:41;;;;;;;21.20;12.90;;;2.40;99.90;;;;;;5033370;28;20749;-74
2021/12/06 07:10:08;;;;;;;23.02;13.30;;;2.40;99.90;;;;;;5031918;28;20422;-75
2021/12/06 07:12:42;;;;;;;22.05;12.40;;;2.40;99.90;;;;;;5042195;28;20399;-73
2021/12/06 07:15:10;;;;;;;20.63;11.90;;;2.30;99.90;;;;;;5058716;28;20404;-73
2021/12/06 07:17:35;;;;;;;21.02;12.20;;;2.40;99.90;;;;;;5055003;28;20397;-73
2021/12/06 07:20:02;;;;;;;25.40;12.20;;;2.40;99.90;;;;;;5047279;28;20399;-74
2021/12/06 07:22:27;;;;;;;21.83;11.80;;;2.30;99.90;;;;;;5033601;28;20388;-74
2021/12/06 07:24:53;;;;;;;17.53;11.63;;;2.30;99.90;;;;;;5015280;28;20463;-74
2021/12/06 07:27:18;;;;;;;18.77;12.10;;;2.20;99.90;;;;;;5013296;28;20412;-74
2021/12/06 07:29:44;;;;;;;20.60;13.23;;;2.20;99.90;;;;;;5038686;28;20424;-73
2021/12/06 07:32:10;;;;;;;18.75;10.95;;;2.20;99.90;;;;;;5033600;28;20722;-74
2021/12/06 07:34:36;;;;;;;21.20;12.30;;;2.20;99.90;;;;;;5031966;28;20437;-74
2021/12/06 07:37:04;;;;;;;23.35;12.40;;;2.10;99.90;;;;;;5033395;28;20397;-75
2021/12/06 07:39:30;;;;;;;20.00;11.02;;;2.20;99.90;;;;;;5037668;28;20406;-74
2021/12/06 07:41:56;;;;;;;16.67;10.90;;;2.20;99.90;;;;;;5042896;28;20728;-74
2021/12/06 07:44:22;;;;;;;19.23;11.30;;;2.20;99.90;;;;;;5031759;28;20398;-75
2021/12/06 07:46:51;;;;;;;19.33;11.90;;;2.20;99.90;;;;;;5041545;28;20391;-74
2021/12/06 07:49:17;;;;;;;22.40;11.77;;;2.20;99.90;;;;;;5031590;28;20411;-76
2021/12/06 07:51:43;;;;;;;17.33;11.48;;;2.20;99.90;;;;;;5025790;28;20901;-75
2021/12/06 07:54:09;;;;;;;21.58;12.25;;;2.20;99.90;;;;;;5034036;28;20408;-74
2021/12/06 07:56:35;;;;;;;24.25;12.13;;;2.30;99.90;;;;;;5048581;28;20396;-75
2021/12/06 07:59:01;;;;;;;19.40;11.90;;;2.30;99.90;;;;;;5035202;28;20461;-74
2021/12/06 08:01:27;;;;;;;25.20;13.43;;;2.30;99.90;;;;;;5042723;28;20397;-74
2021/12/06 08:03:54;;;;;;;22.90;12.57;;;2.20;99.90;;;;;;5032435;28;20482;-76
2021/12/06 08:06:19;;;;;;;21.40;12.82;;;2.20;99.90;;;;;;5045940;28;20399;-75
2021/12/06 08:08:46;;;;;;;26.90;13.20;;;2.20;99.90;;;;;;5057925;28;20479;-75
2021/12/06 08:11:15;;;;;;;23.45;12.27;;;2.30;99.90;;;;;;5038604;28;20436;-75
2021/12/06 08:13:47;;;;;;;22.38;12.88;;;2.30;99.90;;;;;;5032500;28;20400;-75
2021/12/06 08:16:16;;;;;;;19.17;11.97;;;2.50;99.90;;;;;;5033304;28;20858;-73
2021/12/06 08:18:44;;;;;;;21.13;11.60;;;2.50;99.90;;;;;;5037651;28;20895;-75
2021/12/06 08:21:10;;;;;;;22.42;11.88;;;2.50;99.90;;;;;;5024631;28;20400;-75
2021/12/06 08:23:36;;;;;;;23.02;11.70;;;2.60;99.90;;;;;;5035866;28;20409;-73
2021/12/06 08:26:05;;;;;;;32.73;16.77;;;2.60;99.90;;;;;;5033897;28;20412;-73
2021/12/06 08:28:34;;;;;;;19.63;11.98;;;2.60;99.90;;;;;;5016250;28;20729;-74
2021/12/06 08:31:00;;;;;;;19.67;11.13;;;2.60;99.90;;;;;;5020789;28;20756;-75
2021/12/06 08:33:25;;;;;;;17.63;11.07;;;2.70;99.90;;;;;;5016778;28;20400;-73
2021/12/06 08:35:52;;;;;;;19.17;11.35;;;2.70;99.90;;;;;;5036439;28;20399;-72
2021/12/06 08:38:22;;;;;;;16.90;10.75;;;2.80;99.90;;;;;;5039175;28;20467;-73
2021/12/06 08:40:49;;;;;;;16.00;11.07;;;2.80;99.90;;;;;;5021668;28;20396;-74
2021/12/06 08:43:19;;;;;;;21.27;11.52;;;2.90;99.90;;;;;;5019645;28;20442;-73
2021/12/06 08:45:50;;;;;;;17.43;10.20;;;2.90;99.90;;;;;;5031365;28;20899;-72
2021/12/06 08:48:16;;;;;;;17.73;11.00;;;2.90;99.90;;;;;;5021537;28;20416;-71
2021/12/06 08:50:42;;;;;;;19.98;11.63;;;3.00;99.90;;;;;;5022601;28;20410;-71
2021/12/06 08:53:07;;;;;;;21.00;12.18;;;3.10;99.90;;;;;;5020148;28;20392;-73
2021/12/06 08:55:33;;;;;;;20.93;11.73;;;3.10;99.90;;;;;;5021465;28;20587;-74
2021/12/06 08:58:00;;;;;;;15.77;11.10;;;3.20;99.90;;;;;;5020893;28;20393;-75
2021/12/06 09:00:29;;;;;;;20.80;11.70;;;3.20;99.90;;;;;;5037008;28;20518;-74
2021/12/06 09:02:55;;;;;;;18.25;11.98;;;3.30;99.90;;;;;;5058253;28;20404;-74
2021/12/06 09:05:24;;;;;;;19.40;12.25;;;3.20;99.60;;;;;;5040098;28;20422;-76
2021/12/06 09:07:50;;;;;;;22.17;11.70;;;3.30;99.30;;;;;;5030099;28;20422;-74
2021/12/06 09:10:17;;;;;;;21.70;13.17;;;3.30;99.30;;;;;;5037790;28;20505;-75
2021/12/06 09:12:43;;;;;;;21.30;12.30;;;3.30;99.20;;;;;;5057809;28;20395;-74
2021/12/06 09:15:13;;;;;;;16.47;11.33;;;3.40;98.70;;;;;;5037111;28;20403;-75
2021/12/06 09:17:39;;;;;;;24.92;12.48;;;3.70;99.90;;;;;;5033591;28;20401;-76
2021/12/06 09:20:08;;;;;;;24.00;12.20;;;4.70;99.90;;;;;;5027708;28;20402;-72
2021/12/06 09:22:34;;;;;;;19.30;12.10;;;4.30;90.10;;;;;;5022241;28;20489;-75
2021/12/06 09:24:59;;;;;;;21.13;11.73;;;4.20;90.00;;;;;;5037654;28;20431;-77
2021/12/06 09:27:25;;;;;;;24.83;11.70;;;4.10;88.70;;;;;;5041019;28;20394;-74
2021/12/06 09:29:51;;;;;;;24.27;13.52;;;4.10;88.60;;;;;;5040513;28;20424;-73
2021/12/06 09:32:17;;;;;;;17.97;12.00;;;4.10;90.50;;;;;;5045229;28;20934;-75
2021/12/06 09:34:46;;;;;;;24.15;12.38;;;4.10;90.20;;;;;;5039610;28;20401;-75
2021/12/06 09:37:13;;;;;;;22.48;13.07;;;4.10;89.50;;;;;;5032342;28;20391;-76
2021/12/06 09:39:39;;;;;;;21.83;12.90;;;4.20;87.70;;;;;;5030117;28;20401;-74
2021/12/06 09:42:06;;;;;;;21.55;13.48;;;4.20;87.90;;;;;;5029455;28;20396;-75
2021/12/06 09:44:32;;;;;;;23.95;13.55;;;4.30;88.90;;;;;;5016901;28;20554;-75
2021/12/06 09:46:58;;;;;;;19.67;13.27;;;4.40;88.90;;;;;;5026652;28;20539;-77
2021/12/06 09:49:24;;;;;;;20.10;13.50;;;4.50;87.50;;;;;;5026980;28;20564;-75
2021/12/06 09:51:55;;;;;;;23.98;13.50;;;4.60;87.30;;;;;;5026282;28;20420;-75
2021/12/06 09:54:24;;;;;;;20.77;13.80;;;4.70;84.00;;;;;;5022808;28;20482;-75
2021/12/06 09:56:52;;;;;;;21.83;13.63;;;4.80;83.50;;;;;;5025453;28;20415;-78
2021/12/06 09:59:20;;;;;;;22.27;14.30;;;4.90;82.20;;;;;;5041146;28;20390;-77
2021/12/06 10:01:53;;;;;;;20.85;14.00;;;5.00;80.00;;;;;;5026709;28;20399;-76
2021/12/06 10:04:23;;;;;;;23.30;15.00;;;5.20;80.20;;;;;;5026222;28;20398;-80
2021/12/06 10:06:50;;;;;;;30.75;15.95;;;5.50;78.70;;;;;;5051142;28;20401;-78
2021/12/06 10:09:17;;;;;;;33.57;19.83;;;5.90;73.90;;;;;;5041195;28;20403;-78
2021/12/06 10:11:43;;;;;;;38.80;20.90;;;6.10;69.00;;;;;;5033299;28;20398;-77
2021/12/06 10:14:10;;;;;;;38.47;22.23;;;6.30;65.80;;;;;;5031337;28;20778;-75
2021/12/06 10:16:36;;;;;;;39.78;24.48;;;6.60;63.40;;;;;;5019166;28;20411;-78
2021/12/06 10:19:05;;;;;;;43.80;26.33;;;6.70;59.50;;;;;;5019560;28;20392;-78
2021/12/06 10:21:31;;;;;;;44.90;28.10;;;6.70;59.80;;;;;;5026127;28;20457;-76
2021/12/06 10:23:58;;;;;;;46.88;27.05;;;6.70;59.30;;;;;;5022353;28;20408;-78
2021/12/06 10:26:28;;;;;;;52.35;29.70;;;6.50;58.40;;;;;;5054489;28;20425;-77
2021/12/06 10:29:32;;;;;;;51.75;29.73;;;6.90;60.90;;;;;;5028421;28;20427;-78
2021/12/06 10:31:58;;;;;;;56.72;31.63;;;6.20;61.20;;;;;;5033188;28;20868;-77
2021/12/06 10:34:27;;;;;;;61.03;32.67;;;6.10;63.50;;;;;;5019678;28;20409;-77
2021/12/06 10:36:55;;;;;;;54.45;32.85;;;6.00;65.80;;;;;;5030764;28;20408;-77
2021/12/06 10:39:22;;;;;;;61.20;34.35;;;5.90;67.20;;;;;;5031991;28;20402;-76
2021/12/06 10:41:50;;;;;;;63.97;34.93;;;5.90;66.80;;;;;;5028030;28;20567;-78
2021/12/06 10:44:16;;;;;;;64.25;36.42;;;5.90;67.40;;;;;;5022897;28;20913;-77
2021/12/06 10:46:46;;;;;;;71.38;36.40;;;5.90;67.30;;;;;;5015815;28;20504;-75
2021/12/06 10:49:15;;;;;;;62.50;34.42;;;5.90;67.70;;;;;;5018099;28;20808;-72
2021/12/06 10:51:41;;;;;;;60.72;33.85;;;5.90;66.70;;;;;;5036754;28;20786;-72
2021/12/06 10:54:20;;;;;;;64.43;34.93;;;5.90;67.00;;;;;;5032322;28;20402;-74
2021/12/06 10:56:51;;;;;;;67.30;36.60;;;5.90;67.80;;;;;;5016451;28;20500;-71
2021/12/06 10:59:25;;;;;;;65.30;36.50;;;5.90;68.60;;;;;;5036740;28;20757;-73
2021/12/06 11:01:54;;;;;;;64.73;35.13;;;6.00;67.80;;;;;;5030684;28;20419;-74
2021/12/06 11:04:23;;;;;;;67.60;37.50;;;6.00;67.10;;;;;;5022960;28;20389;-73
2021/12/06 11:06:53;;;;;;;69.82;38.38;;;5.90;68.00;;;;;;5027154;28;20397;-74
2021/12/06 11:09:28;;;;;;;75.00;36.50;;;5.90;68.20;;;;;;5041389;28;20399;-74
2021/12/06 11:11:58;;;;;;;67.03;36.83;;;5.80;68.10;;;;;;5036742;28;20421;-74
2021/12/06 11:14:30;;;;;;;69.40;35.92;;;5.80;70.50;;;;;;5031661;28;20927;-74
2021/12/06 11:17:01;;;;;;;70.45;35.03;;;5.90;69.70;;;;;;5023303;28;20411;-74
2021/12/06 11:19:29;;;;;;;73.45;36.70;;;5.90;70.30;;;;;;5027450;28;20820;-75
2021/12/06 11:21:56;;;;;;;71.70;35.72;;;6.00;69.90;;;;;;5030757;28;20401;-75
2021/12/06 11:24:29;;;;;;;77.25;38.17;;;6.00;69.80;;;;;;5027555;28;20400;-75
2021/12/06 11:27:10;;;;;;;77.60;38.70;;;6.10;68.50;;;;;;5026165;28;20408;-75
2021/12/06 11:29:46;;;;;;;77.70;38.60;;;6.20;67.90;;;;;;5013589;28;20734;-73
2021/12/06 11:32:12;;;;;;;72.50;37.63;;;6.30;67.40;;;;;;5022843;28;20543;-74
2021/12/06 11:34:40;;;;;;;74.23;36.90;;;6.50;65.10;;;;;;5034797;28;20410;-75
2021/12/06 11:37:16;;;;;;;75.72;37.78;;;6.50;64.50;;;;;;5015903;28;20450;-74
2021/12/06 11:39:44;;;;;;;73.03;35.50;;;6.60;62.80;;;;;;5033544;28;20968;-76
2021/12/06 11:42:10;;;;;;;86.63;39.47;;;6.70;61.80;;;;;;5027465;28;20395;-73
2021/12/06 11:44:42;;;;;;;83.50;39.67;;;6.80;60.10;;;;;;5024215;28;20796;-74
2021/12/06 11:47:14;;;;;;;85.60;40.20;;;6.80;59.00;;;;;;5020060;28;20395;-78
2021/12/06 11:49:47;;;;;;;83.88;39.92;;;6.70;59.40;;;;;;5035033;28;20389;-75
2021/12/06 11:52:26;;;;;;;91.23;40.33;;;6.50;60.60;;;;;;5013977;28;20397;-75
2021/12/06 11:55:00;;;;;;;98.90;42.55;;;6.50;61.60;;;;;;5016037;28;20478;-73
2021/12/06 11:57:32;;;;;;;89.10;39.43;;;6.50;62.20;;;;;;5023181;28;22054;-74
2021/12/06 12:00:12;;;;;;;97.65;41.17;;;6.30;62.80;;;;;;5014608;28;20397;-74
2021/12/06 12:02:45;;;;;;;91.65;40.20;;;6.30;63.40;;;;;;5012115;28;20447;-74
2021/12/06 12:05:12;;;;;;;93.47;39.03;;;6.30;62.30;;;;;;5018664;28;20412;-72
2021/12/06 12:08:27;;;;;;;86.55;37.63;;;6.30;62.90;;;;;;5033351;28;20394;-73
2021/12/06 12:10:54;;;;;;;82.90;39.47;;;6.40;63.00;;;;;;4998750;28;20478;-72
2021/12/06 12:13:26;;;;;;;88.57;37.92;;;6.40;60.50;;;;;;5016816;28;20504;-73
2021/12/06 12:15:55;;;;;;;84.25;38.22;;;6.30;61.30;;;;;;5042568;28;20397;-74
2021/12/06 12:18:22;;;;;;;88.95;37.95;;;6.20;62.30;;;;;;5019734;28;20431;-72
2021/12/06 12:20:48;;;;;;;88.32;38.80;;;6.20;62.80;;;;;;5011617;28;20826;-71
2021/12/06 12:23:15;;;;;;;91.22;39.28;;;6.20;63.40;;;;;;5028982;28;20389;-71
2021/12/06 12:25:58;;;;;;;91.95;39.05;;;6.20;64.50;;;;;;5045129;28;20511;-72
2021/12/06 12:28:35;;;;;;;83.70;37.35;;;6.20;64.70;;;;;;5011788;28;20400;-71
2021/12/06 12:31:01;;;;;;;84.28;38.65;;;6.20;65.10;;;;;;5024935;28;20484;-72
2021/12/06 12:33:27;;;;;;;79.60;37.13;;;6.20;64.10;;;;;;5009641;28;20488;-73
2021/12/06 12:35:57;;;;;;;77.75;38.15;;;6.20;64.60;;;;;;5011916;28;20917;-72
2021/12/06 12:38:28;;;;;;;87.75;39.03;;;6.20;63.80;;;;;;5021837;28;20452;-73
2021/12/06 12:40:58;;;;;;;88.53;38.60;;;6.30;63.40;;;;;;5035325;28;20405;-75
2021/12/06 12:43:31;;;;;;;80.78;38.28;;;6.30;63.00;;;;;;5047704;28;20389;-76
2021/12/06 12:46:04;;;;;;;84.40;38.53;;;6.20;63.70;;;;;;5032018;28;20408;-73
2021/12/06 12:48:54;;;;;;;74.63;36.10;;;6.20;64.30;;;;;;5037462;28;20390;-75
2021/12/06 12:51:24;;;;;;;82.60;35.63;;;6.10;62.90;;;;;;5038786;28;20400;-72
2021/12/06 12:54:14;;;;;;;80.15;36.47;;;6.00;63.60;;;;;;5058981;28;20408;-74
2021/12/06 12:56:50;;;;;;;76.93;35.40;;;5.90;64.50;;;;;;5039182;28;20759;-74
2021/12/06 12:59:17;;;;;;;76.63;36.78;;;6.00;66.20;;;;;;5038417;28;20419;-75
2021/12/06 13:01:45;;;;;;;73.25;36.78;;;6.00;65.80;;;;;;5018289;28;20463;-76
2021/12/06 13:04:12;;;;;;;78.30;36.55;;;5.90;66.80;;;;;;5031995;28;20375;-75
2021/12/06 13:06:39;;;;;;;79.20;37.03;;;5.90;67.20;;;;;;5037368;28;20403;-75